Leonora Airport


Codes: YLEO/LNO
Name: Leonora Airport
City: Leonora
Country: Australia
Elevation: 1217 ft.
Website:
Wikipedia:

Photos at Leonora Airport


   Photos courtesy of SpottingLog. You can add your own sightings and photos by signing up for a free trial today.



No photos found.

Weather at Leonora Airport


Time (UTC)DescriptionTempratureWindCloud coverageVisibilityPressureHumidity
15-Apr-2024 15:00Clear Sky21°C18 mph, SE0%10000m1022hPa43%
15-Apr-2024 18:00Clear Sky20°C18 mph, SE0%10000m1022hPa46%
15-Apr-2024 21:00Clear Sky18°C18 mph, SE0%10000m1023hPa53%
16-Apr-2024 00:00Clear Sky19°C22 mph, E0%10000m1024hPa54%
16-Apr-2024 03:00Clear Sky26°C20 mph, E0%10000m1022hPa31%
16-Apr-2024 06:00Clear Sky29°C18 mph, E0%10000m1019hPa24%
16-Apr-2024 09:00Clear Sky28°C18 mph, E0%10000m1020hPa26%
16-Apr-2024 12:00Clear Sky24°C18 mph, SE0%10000m1022hPa34%
16-Apr-2024 15:00Clear Sky21°C18 mph, SE0%10000m1023hPa40%
16-Apr-2024 18:00Clear Sky19°C18 mph, E0%10000m1023hPa46%
16-Apr-2024 21:00Clear Sky18°C16 mph, E1%10000m1024hPa48%
17-Apr-2024 00:00Clear Sky19°C20 mph, E4%10000m1026hPa46%
17-Apr-2024 03:00Overcast Clouds24°C18 mph, E96%10000m1025hPa34%
17-Apr-2024 06:00Broken Clouds28°C13 mph, NE68%10000m1022hPa25%
17-Apr-2024 09:00Clear Sky27°C13 mph, E1%10000m1022hPa26%
17-Apr-2024 12:00Clear Sky23°C18 mph, E1%10000m1025hPa36%
17-Apr-2024 15:00Clear Sky20°C18 mph, E0%10000m1026hPa39%
17-Apr-2024 18:00Clear Sky18°C13 mph, E0%10000m1026hPa42%
17-Apr-2024 21:00Clear Sky17°C13 mph, E0%10000m1027hPa47%
18-Apr-2024 00:00Clear Sky18°C16 mph, E0%10000m1028hPa43%
18-Apr-2024 03:00Clear Sky23°C16 mph, E0%10000m1027hPa29%
18-Apr-2024 06:00Clear Sky26°C13 mph, E0%10000m1024hPa22%
18-Apr-2024 09:00Clear Sky25°C16 mph, E0%10000m1024hPa23%
18-Apr-2024 12:00Clear Sky21°C16 mph, E0%10000m1026hPa32%
18-Apr-2024 15:00Clear Sky18°C13 mph, E0%10000m1026hPa38%
18-Apr-2024 18:00Clear Sky16°C9 mph, E0%10000m1025hPa43%
18-Apr-2024 21:00Clear Sky15°C9 mph, E0%10000m1026hPa48%
19-Apr-2024 00:00Clear Sky17°C16 mph, E0%10000m1027hPa52%
19-Apr-2024 03:00Clear Sky23°C13 mph, E0%10000m1026hPa32%
19-Apr-2024 06:00Clear Sky26°C13 mph, E0%10000m1023hPa22%
19-Apr-2024 09:00Clear Sky25°C13 mph, E0%10000m1023hPa23%
19-Apr-2024 12:00Clear Sky21°C11 mph, E0%10000m1025hPa32%
19-Apr-2024 15:00Clear Sky18°C11 mph, E0%10000m1026hPa42%
19-Apr-2024 18:00Clear Sky17°C9 mph, E0%10000m1025hPa49%
19-Apr-2024 21:00Clear Sky15°C9 mph, E0%10000m1026hPa48%
20-Apr-2024 00:00Clear Sky18°C11 mph, E0%10000m1027hPa37%
20-Apr-2024 03:00Clear Sky24°C11 mph, E0%10000m1025hPa23%
20-Apr-2024 06:00Clear Sky27°C13 mph, E0%10000m1022hPa18%
20-Apr-2024 09:00Clear Sky25°C13 mph, E0%10000m1022hPa21%
20-Apr-2024 12:00Clear Sky21°C11 mph, E0%10000m1025hPa30%